sensor_id;sensor_type;location;lat;lon;timestamp;P1;durP1;ratioP1;P2;durP2;ratioP2
6983;SDS011;3532;51.118;7.210;2022-08-05T00:01:40;7.90;;;3.60;;
6983;SDS011;3532;51.118;7.210;2022-08-05T00:04:05;4.40;;;3.60;;
6983;SDS011;3532;51.118;7.210;2022-08-05T00:06:31;6.33;;;3.87;;
6983;SDS011;3532;51.118;7.210;2022-08-05T00:08:56;5.80;;;3.70;;
6983;SDS011;3532;51.118;7.210;2022-08-05T00:11:21;5.23;;;3.70;;
6983;SDS011;3532;51.118;7.210;2022-08-05T00:13:47;4.97;;;3.70;;
6983;SDS011;3532;51.118;7.210;2022-08-05T00:16:13;4.83;;;3.50;;
6983;SDS011;3532;51.118;7.210;2022-08-05T00:18:40;6.37;;;4.10;;
6983;SDS011;3532;51.118;7.210;2022-08-05T00:21:07;6.20;;;3.87;;
6983;SDS011;3532;51.118;7.210;2022-08-05T00:23:32;5.77;;;4.17;;
6983;SDS011;3532;51.118;7.210;2022-08-05T00:25:57;4.33;;;3.53;;
6983;SDS011;3532;51.118;7.210;2022-08-05T00:28:23;5.97;;;3.40;;
6983;SDS011;3532;51.118;7.210;2022-08-05T00:30:48;7.47;;;3.70;;
6983;SDS011;3532;51.118;7.210;2022-08-05T00:33:14;7.10;;;3.60;;
6983;SDS011;3532;51.118;7.210;2022-08-05T00:35:40;5.37;;;3.47;;
6983;SDS011;3532;51.118;7.210;2022-08-05T00:38:06;4.87;;;3.83;;
6983;SDS011;3532;51.118;7.210;2022-08-05T00:40:31;4.30;;;3.43;;
6983;SDS011;3532;51.118;7.210;2022-08-05T00:42:58;8.70;;;4.20;;
6983;SDS011;3532;51.118;7.210;2022-08-05T00:45:25;3.93;;;3.40;;
6983;SDS011;3532;51.118;7.210;2022-08-05T00:47:51;5.10;;;3.30;;
6983;SDS011;3532;51.118;7.210;2022-08-05T00:50:16;5.57;;;3.60;;
6983;SDS011;3532;51.118;7.210;2022-08-05T00:52:42;5.07;;;3.70;;
6983;SDS011;3532;51.118;7.210;2022-08-05T00:55:07;4.27;;;3.77;;
6983;SDS011;3532;51.118;7.210;2022-08-05T00:57:32;6.23;;;3.90;;
6983;SDS011;3532;51.118;7.210;2022-08-05T00:59:58;4.67;;;3.60;;
6983;SDS011;3532;51.118;7.210;2022-08-05T01:02:23;4.67;;;3.70;;
6983;SDS011;3532;51.118;7.210;2022-08-05T01:04:48;3.90;;;3.50;;
6983;SDS011;3532;51.118;7.210;2022-08-05T01:07:13;4.37;;;3.60;;
6983;SDS011;3532;51.118;7.210;2022-08-05T01:09:39;3.93;;;3.53;;
6983;SDS011;3532;51.118;7.210;2022-08-05T01:12:06;4.07;;;3.43;;
6983;SDS011;3532;51.118;7.210;2022-08-05T01:14:40;6.23;;;3.67;;
6983;SDS011;3532;51.118;7.210;2022-08-05T01:17:12;6.60;;;3.90;;
6983;SDS011;3532;51.118;7.210;2022-08-05T01:30:35;5.57;;;3.70;;
6983;SDS011;3532;51.118;7.210;2022-08-05T01:33:03;7.27;;;4.70;;
6983;SDS011;3532;51.118;7.210;2022-08-05T01:35:30;5.47;;;3.97;;
6983;SDS011;3532;51.118;7.210;2022-08-05T01:37:57;4.07;;;3.67;;
6983;SDS011;3532;51.118;7.210;2022-08-05T01:40:25;8.57;;;4.20;;
6983;SDS011;3532;51.118;7.210;2022-08-05T01:42:53;6.73;;;4.43;;
6983;SDS011;3532;51.118;7.210;2022-08-05T01:45:19;7.30;;;4.00;;
6983;SDS011;3532;51.118;7.210;2022-08-05T01:47:45;4.63;;;4.20;;
6983;SDS011;3532;51.118;7.210;2022-08-05T01:50:16;6.67;;;4.57;;
6983;SDS011;3532;51.118;7.210;2022-08-05T01:52:44;6.47;;;4.57;;
6983;SDS011;3532;51.118;7.210;2022-08-05T01:55:11;5.13;;;3.33;;
6983;SDS011;3532;51.118;7.210;2022-08-05T01:57:38;8.20;;;3.70;;
6983;SDS011;3532;51.118;7.210;2022-08-05T02:00:05;5.10;;;3.37;;
6983;SDS011;3532;51.118;7.210;2022-08-05T02:02:33;5.93;;;3.40;;
6983;SDS011;3532;51.118;7.210;2022-08-05T02:05:02;4.53;;;3.60;;
6983;SDS011;3532;51.118;7.210;2022-08-05T02:07:30;6.20;;;4.30;;
6983;SDS011;3532;51.118;7.210;2022-08-05T02:09:56;5.00;;;3.90;;
6983;SDS011;3532;51.118;7.210;2022-08-05T02:15:27;4.63;;;3.77;;
6983;SDS011;3532;51.118;7.210;2022-08-05T02:17:58;6.70;;;3.57;;
6983;SDS011;3532;51.118;7.210;2022-08-05T02:20:38;3.70;;;3.30;;
6983;SDS011;3532;51.118;7.210;2022-08-05T02:23:08;6.07;;;3.60;;
6983;SDS011;3532;51.118;7.210;2022-08-05T02:25:35;6.07;;;3.60;;
6983;SDS011;3532;51.118;7.210;2022-08-05T02:28:03;5.20;;;3.40;;
6983;SDS011;3532;51.118;7.210;2022-08-05T02:30:31;7.97;;;3.30;;
6983;SDS011;3532;51.118;7.210;2022-08-05T02:33:02;8.03;;;3.90;;
6983;SDS011;3532;51.118;7.210;2022-08-05T02:35:29;3.97;;;3.57;;
6983;SDS011;3532;51.118;7.210;2022-08-05T02:37:55;3.93;;;3.63;;
6983;SDS011;3532;51.118;7.210;2022-08-05T02:40:20;5.70;;;3.80;;
6983;SDS011;3532;51.118;7.210;2022-08-05T02:42:47;4.17;;;3.50;;
6983;SDS011;3532;51.118;7.210;2022-08-05T02:45:13;4.03;;;3.17;;
6983;SDS011;3532;51.118;7.210;2022-08-05T02:47:38;4.70;;;4.20;;
6983;SDS011;3532;51.118;7.210;2022-08-05T02:50:04;3.83;;;3.43;;
6983;SDS011;3532;51.118;7.210;2022-08-05T02:52:30;4.97;;;3.50;;
6983;SDS011;3532;51.118;7.210;2022-08-05T02:54:57;4.23;;;3.70;;
6983;SDS011;3532;51.118;7.210;2022-08-05T02:57:24;4.43;;;3.60;;
6983;SDS011;3532;51.118;7.210;2022-08-05T02:59:49;6.73;;;4.33;;
6983;SDS011;3532;51.118;7.210;2022-08-05T03:02:16;4.10;;;3.70;;
6983;SDS011;3532;51.118;7.210;2022-08-05T03:04:43;5.83;;;4.47;;
6983;SDS011;3532;51.118;7.210;2022-08-05T03:07:10;6.83;;;4.40;;
6983;SDS011;3532;51.118;7.210;2022-08-05T03:09:35;5.83;;;4.03;;
6983;SDS011;3532;51.118;7.210;2022-08-05T03:12:01;7.87;;;4.70;;
6983;SDS011;3532;51.118;7.210;2022-08-05T03:14:26;11.00;;;5.60;;
6983;SDS011;3532;51.118;7.210;2022-08-05T03:16:51;9.70;;;6.30;;
6983;SDS011;3532;51.118;7.210;2022-08-05T03:19:17;7.93;;;5.80;;
6983;SDS011;3532;51.118;7.210;2022-08-05T03:21:43;5.83;;;4.97;;
6983;SDS011;3532;51.118;7.210;2022-08-05T03:24:08;6.60;;;5.00;;
6983;SDS011;3532;51.118;7.210;2022-08-05T03:26:34;7.20;;;6.00;;
6983;SDS011;3532;51.118;7.210;2022-08-05T03:28:59;7.77;;;6.03;;
6983;SDS011;3532;51.118;7.210;2022-08-05T03:31:25;8.10;;;5.37;;
6983;SDS011;3532;51.118;7.210;2022-08-05T03:33:50;10.17;;;6.37;;
6983;SDS011;3532;51.118;7.210;2022-08-05T03:36:16;7.27;;;5.43;;
6983;SDS011;3532;51.118;7.210;2022-08-05T03:38:41;7.97;;;5.40;;
6983;SDS011;3532;51.118;7.210;2022-08-05T03:41:07;7.97;;;5.47;;
6983;SDS011;3532;51.118;7.210;2022-08-05T03:43:32;6.17;;;5.23;;
6983;SDS011;3532;51.118;7.210;2022-08-05T03:45:58;6.27;;;4.87;;
6983;SDS011;3532;51.118;7.210;2022-08-05T03:48:23;7.87;;;5.27;;
6983;SDS011;3532;51.118;7.210;2022-08-05T03:50:51;5.93;;;5.33;;
6983;SDS011;3532;51.118;7.210;2022-08-05T03:53:27;6.57;;;5.47;;
6983;SDS011;3532;51.118;7.210;2022-08-05T03:55:59;5.77;;;5.23;;
6983;SDS011;3532;51.118;7.210;2022-08-05T03:58:30;5.33;;;4.53;;
6983;SDS011;3532;51.118;7.210;2022-08-05T04:00:57;5.63;;;5.03;;
6983;SDS011;3532;51.118;7.210;2022-08-05T04:03:24;10.30;;;5.27;;
6983;SDS011;3532;51.118;7.210;2022-08-05T04:05:50;5.80;;;5.13;;
6983;SDS011;3532;51.118;7.210;2022-08-05T04:08:16;5.83;;;5.03;;
6983;SDS011;3532;51.118;7.210;2022-08-05T04:10:42;5.77;;;5.00;;
6983;SDS011;3532;51.118;7.210;2022-08-05T04:13:09;7.07;;;5.70;;
6983;SDS011;3532;51.118;7.210;2022-08-05T04:15:34;6.83;;;5.17;;
6983;SDS011;3532;51.118;7.210;2022-08-05T04:18:00;5.33;;;4.80;;
6983;SDS011;3532;51.118;7.210;2022-08-05T04:20:27;6.27;;;5.30;;
6983;SDS011;3532;51.118;7.210;2022-08-05T04:22:53;7.83;;;5.00;;
6983;SDS011;3532;51.118;7.210;2022-08-05T04:25:18;5.80;;;5.00;;
6983;SDS011;3532;51.118;7.210;2022-08-05T04:27:43;6.03;;;4.73;;
6983;SDS011;3532;51.118;7.210;2022-08-05T04:30:09;5.67;;;5.17;;
6983;SDS011;3532;51.118;7.210;2022-08-05T04:32:35;6.37;;;5.43;;
6983;SDS011;3532;51.118;7.210;2022-08-05T04:35:00;9.07;;;6.30;;
6983;SDS011;3532;51.118;7.210;2022-08-05T04:37:26;7.73;;;5.90;;
6983;SDS011;3532;51.118;7.210;2022-08-05T04:39:51;6.23;;;5.73;;
6983;SDS011;3532;51.118;7.210;2022-08-05T04:42:16;10.07;;;5.73;;
6983;SDS011;3532;51.118;7.210;2022-08-05T04:44:42;7.73;;;6.27;;
6983;SDS011;3532;51.118;7.210;2022-08-05T04:47:07;9.43;;;6.67;;
6983;SDS011;3532;51.118;7.210;2022-08-05T04:49:32;7.13;;;6.43;;
6983;SDS011;3532;51.118;7.210;2022-08-05T04:51:58;8.70;;;6.50;;
6983;SDS011;3532;51.118;7.210;2022-08-05T04:54:23;8.03;;;6.87;;
6983;SDS011;3532;51.118;7.210;2022-08-05T04:56:51;6.83;;;6.00;;
6983;SDS011;3532;51.118;7.210;2022-08-05T04:59:17;7.77;;;6.63;;
6983;SDS011;3532;51.118;7.210;2022-08-05T05:01:44;6.80;;;6.10;;
6983;SDS011;3532;51.118;7.210;2022-08-05T05:04:09;8.03;;;6.30;;
6983;SDS011;3532;51.118;7.210;2022-08-05T05:06:35;9.00;;;6.27;;
6983;SDS011;3532;51.118;7.210;2022-08-05T05:09:00;8.33;;;6.27;;
6983;SDS011;3532;51.118;7.210;2022-08-05T05:11:25;5.93;;;5.40;;
6983;SDS011;3532;51.118;7.210;2022-08-05T05:13:51;6.30;;;5.63;;
6983;SDS011;3532;51.118;7.210;2022-08-05T05:16:16;6.70;;;6.03;;
6983;SDS011;3532;51.118;7.210;2022-08-05T05:18:42;6.90;;;6.10;;
6983;SDS011;3532;51.118;7.210;2022-08-05T05:21:07;8.03;;;6.17;;
6983;SDS011;3532;51.118;7.210;2022-08-05T05:23:32;7.73;;;6.57;;
6983;SDS011;3532;51.118;7.210;2022-08-05T05:25:58;8.60;;;7.70;;
6983;SDS011;3532;51.118;7.210;2022-08-05T05:28:23;10.13;;;9.10;;
6983;SDS011;3532;51.118;7.210;2022-08-05T05:30:48;16.50;;;14.90;;
6983;SDS011;3532;51.118;7.210;2022-08-05T05:33:14;18.33;;;16.43;;
6983;SDS011;3532;51.118;7.210;2022-08-05T05:35:39;14.90;;;13.57;;
6983;SDS011;3532;51.118;7.210;2022-08-05T05:38:04;15.83;;;14.33;;
6983;SDS011;3532;51.118;7.210;2022-08-05T05:40:32;16.83;;;14.97;;
6983;SDS011;3532;51.118;7.210;2022-08-05T05:42:58;17.77;;;16.07;;
6983;SDS011;3532;51.118;7.210;2022-08-05T05:45:24;17.23;;;15.33;;
6983;SDS011;3532;51.118;7.210;2022-08-05T05:47:49;18.87;;;17.07;;
6983;SDS011;3532;51.118;7.210;2022-08-05T05:50:15;22.03;;;19.90;;
6983;SDS011;3532;51.118;7.210;2022-08-05T05:52:42;19.13;;;17.33;;
6983;SDS011;3532;51.118;7.210;2022-08-05T05:55:09;19.77;;;17.97;;
6983;SDS011;3532;51.118;7.210;2022-08-05T05:57:38;18.50;;;16.70;;
6983;SDS011;3532;51.118;7.210;2022-08-05T06:00:06;19.47;;;17.13;;
6983;SDS011;3532;51.118;7.210;2022-08-05T06:02:33;20.63;;;18.63;;
6983;SDS011;3532;51.118;7.210;2022-08-05T06:04:58;19.30;;;17.40;;
6983;SDS011;3532;51.118;7.210;2022-08-05T06:07:23;19.53;;;17.73;;
6983;SDS011;3532;51.118;7.210;2022-08-05T06:09:49;20.10;;;18.10;;
6983;SDS011;3532;51.118;7.210;2022-08-05T06:12:14;18.90;;;17.10;;
6983;SDS011;3532;51.118;7.210;2022-08-05T06:14:40;17.93;;;16.17;;
6983;SDS011;3532;51.118;7.210;2022-08-05T06:17:08;17.23;;;15.63;;
6983;SDS011;3532;51.118;7.210;2022-08-05T06:19:34;19.70;;;17.83;;
6983;SDS011;3532;51.118;7.210;2022-08-05T06:21:59;20.20;;;18.00;;
6983;SDS011;3532;51.118;7.210;2022-08-05T06:24:25;20.53;;;18.63;;
6983;SDS011;3532;51.118;7.210;2022-08-05T06:26:50;20.93;;;18.77;;
6983;SDS011;3532;51.118;7.210;2022-08-05T06:29:15;21.07;;;18.37;;
6983;SDS011;3532;51.118;7.210;2022-08-05T06:31:41;23.37;;;21.07;;
6983;SDS011;3532;51.118;7.210;2022-08-05T06:34:06;22.03;;;19.90;;
6983;SDS011;3532;51.118;7.210;2022-08-05T06:36:31;22.33;;;20.23;;
6983;SDS011;3532;51.118;7.210;2022-08-05T06:38:56;21.70;;;19.70;;
6983;SDS011;3532;51.118;7.210;2022-08-05T06:41:22;22.17;;;20.03;;
6983;SDS011;3532;51.118;7.210;2022-08-05T06:43:47;24.30;;;21.83;;
6983;SDS011;3532;51.118;7.210;2022-08-05T06:46:13;22.77;;;20.60;;
6983;SDS011;3532;51.118;7.210;2022-08-05T06:48:39;24.70;;;22.27;;
6983;SDS011;3532;51.118;7.210;2022-08-05T06:51:04;26.00;;;23.30;;
6983;SDS011;3532;51.118;7.210;2022-08-05T06:53:29;24.03;;;21.63;;
6983;SDS011;3532;51.118;7.210;2022-08-05T06:55:58;27.03;;;24.43;;
6983;SDS011;3532;51.118;7.210;2022-08-05T06:58:24;26.30;;;23.80;;
6983;SDS011;3532;51.118;7.210;2022-08-05T07:00:50;27.87;;;25.27;;
6983;SDS011;3532;51.118;7.210;2022-08-05T07:03:16;28.30;;;25.30;;
6983;SDS011;3532;51.118;7.210;2022-08-05T07:05:41;29.37;;;26.37;;
6983;SDS011;3532;51.118;7.210;2022-08-05T07:08:06;28.90;;;25.90;;
6983;SDS011;3532;51.118;7.210;2022-08-05T07:10:32;30.10;;;26.97;;
6983;SDS011;3532;51.118;7.210;2022-08-05T07:12:57;29.63;;;26.70;;
6983;SDS011;3532;51.118;7.210;2022-08-05T07:15:41;28.07;;;25.37;;
6983;SDS011;3532;51.118;7.210;2022-08-05T07:18:24;30.37;;;27.43;;
6983;SDS011;3532;51.118;7.210;2022-08-05T07:20:50;29.67;;;26.70;;
6983;SDS011;3532;51.118;7.210;2022-08-05T07:23:15;34.03;;;30.53;;
6983;SDS011;3532;51.118;7.210;2022-08-05T07:25:40;41.07;;;36.53;;
6983;SDS011;3532;51.118;7.210;2022-08-05T07:28:06;47.13;;;38.87;;
6983;SDS011;3532;51.118;7.210;2022-08-05T07:30:32;43.63;;;37.83;;
6983;SDS011;3532;51.118;7.210;2022-08-05T07:32:59;45.87;;;39.40;;
6983;SDS011;3532;51.118;7.210;2022-08-05T07:35:25;38.43;;;34.43;;
6983;SDS011;3532;51.118;7.210;2022-08-05T07:37:50;39.63;;;35.53;;
6983;SDS011;3532;51.118;7.210;2022-08-05T07:40:16;41.00;;;35.83;;
6983;SDS011;3532;51.118;7.210;2022-08-05T07:42:41;36.80;;;33.00;;
6983;SDS011;3532;51.118;7.210;2022-08-05T07:45:07;36.63;;;32.83;;
6983;SDS011;3532;51.118;7.210;2022-08-05T07:47:32;37.57;;;33.63;;
6983;SDS011;3532;51.118;7.210;2022-08-05T07:49:58;37.53;;;33.63;;
6983;SDS011;3532;51.118;7.210;2022-08-05T07:52:23;35.73;;;31.97;;
6983;SDS011;3532;51.118;7.210;2022-08-05T07:54:48;35.10;;;31.27;;
6983;SDS011;3532;51.118;7.210;2022-08-05T07:57:14;33.30;;;29.77;;
6983;SDS011;3532;51.118;7.210;2022-08-05T07:59:39;33.60;;;30.17;;
6983;SDS011;3532;51.118;7.210;2022-08-05T08:02:04;32.33;;;28.87;;
6983;SDS011;3532;51.118;7.210;2022-08-05T08:04:31;30.10;;;27.10;;
6983;SDS011;3532;51.118;7.210;2022-08-05T08:06:57;28.77;;;25.80;;
6983;SDS011;3532;51.118;7.210;2022-08-05T08:09:24;32.73;;;29.40;;
6983;SDS011;3532;51.118;7.210;2022-08-05T08:11:50;31.20;;;27.90;;
6983;SDS011;3532;51.118;7.210;2022-08-05T08:14:15;30.83;;;27.83;;
6983;SDS011;3532;51.118;7.210;2022-08-05T08:16:40;36.13;;;29.93;;
6983;SDS011;3532;51.118;7.210;2022-08-05T08:19:06;29.63;;;26.50;;
6983;SDS011;3532;51.118;7.210;2022-08-05T08:21:32;32.83;;;29.53;;
6983;SDS011;3532;51.118;7.210;2022-08-05T08:23:57;31.40;;;28.23;;
6983;SDS011;3532;51.118;7.210;2022-08-05T08:26:23;28.93;;;26.07;;
6983;SDS011;3532;51.118;7.210;2022-08-05T08:28:48;25.53;;;22.87;;
6983;SDS011;3532;51.118;7.210;2022-08-05T08:31:13;26.40;;;23.70;;
6983;SDS011;3532;51.118;7.210;2022-08-05T08:33:39;23.33;;;21.13;;
6983;SDS011;3532;51.118;7.210;2022-08-05T08:36:05;19.90;;;18.03;;
6983;SDS011;3532;51.118;7.210;2022-08-05T08:38:31;18.50;;;16.57;;
6983;SDS011;3532;51.118;7.210;2022-08-05T08:40:56;15.43;;;14.03;;
6983;SDS011;3532;51.118;7.210;2022-08-05T08:43:24;17.23;;;15.53;;
6983;SDS011;3532;51.118;7.210;2022-08-05T08:45:49;17.53;;;15.83;;
6983;SDS011;3532;51.118;7.210;2022-08-05T08:48:16;14.70;;;13.43;;
6983;SDS011;3532;51.118;7.210;2022-08-05T08:50:43;15.40;;;14.10;;
6983;SDS011;3532;51.118;7.210;2022-08-05T08:53:09;14.57;;;13.30;;
6983;SDS011;3532;51.118;7.210;2022-08-05T08:55:36;13.10;;;11.80;;
6983;SDS011;3532;51.118;7.210;2022-08-05T08:58:02;12.07;;;11.07;;
6983;SDS011;3532;51.118;7.210;2022-08-05T09:00:28;12.33;;;11.13;;
6983;SDS011;3532;51.118;7.210;2022-08-05T09:02:54;11.00;;;10.07;;
6983;SDS011;3532;51.118;7.210;2022-08-05T09:05:21;11.10;;;10.10;;
6983;SDS011;3532;51.118;7.210;2022-08-05T09:07:46;9.53;;;8.77;;
6983;SDS011;3532;51.118;7.210;2022-08-05T09:10:12;7.50;;;6.90;;
6983;SDS011;3532;51.118;7.210;2022-08-05T09:12:39;7.00;;;6.40;;
6983;SDS011;3532;51.118;7.210;2022-08-05T09:15:04;7.43;;;6.80;;
6983;SDS011;3532;51.118;7.210;2022-08-05T09:17:31;6.23;;;5.73;;
6983;SDS011;3532;51.118;7.210;2022-08-05T09:19:57;6.30;;;5.80;;
6983;SDS011;3532;51.118;7.210;2022-08-05T09:22:22;6.70;;;6.20;;
6983;SDS011;3532;51.118;7.210;2022-08-05T09:24:57;6.70;;;6.20;;
6983;SDS011;3532;51.118;7.210;2022-08-05T09:27:31;6.50;;;6.00;;
6983;SDS011;3532;51.118;7.210;2022-08-05T09:29:58;6.97;;;6.27;;
6983;SDS011;3532;51.118;7.210;2022-08-05T09:32:32;6.53;;;6.03;;
6983;SDS011;3532;51.118;7.210;2022-08-05T09:34:58;6.70;;;6.00;;
6983;SDS011;3532;51.118;7.210;2022-08-05T09:37:25;7.07;;;6.40;;
6983;SDS011;3532;51.118;7.210;2022-08-05T09:39:53;7.40;;;6.70;;
6983;SDS011;3532;51.118;7.210;2022-08-05T09:42:19;7.20;;;6.50;;
6983;SDS011;3532;51.118;7.210;2022-08-05T09:44:49;7.60;;;6.73;;
6983;SDS011;3532;51.118;7.210;2022-08-05T09:47:17;8.23;;;7.57;;
6983;SDS011;3532;51.118;7.210;2022-08-05T09:52:16;8.97;;;8.13;;
6983;SDS011;3532;51.118;7.210;2022-08-05T09:54:56;8.43;;;7.83;;
6983;SDS011;3532;51.118;7.210;2022-08-05T09:57:29;8.83;;;8.03;;
6983;SDS011;3532;51.118;7.210;2022-08-05T10:00:00;7.93;;;7.33;;
6983;SDS011;3532;51.118;7.210;2022-08-05T10:02:43;9.30;;;8.37;;
6983;SDS011;3532;51.118;7.210;2022-08-05T10:05:11;8.00;;;7.33;;
6983;SDS011;3532;51.118;7.210;2022-08-05T10:07:55;7.73;;;7.13;;
6983;SDS011;3532;51.118;7.210;2022-08-05T10:10:25;7.77;;;7.13;;
6983;SDS011;3532;51.118;7.210;2022-08-05T10:13:00;8.00;;;7.30;;
6983;SDS011;3532;51.118;7.210;2022-08-05T10:15:32;7.17;;;6.47;;
6983;SDS011;3532;51.118;7.210;2022-08-05T10:20:31;6.47;;;5.87;;
6983;SDS011;3532;51.118;7.210;2022-08-05T10:22:58;9.37;;;8.07;;
6983;SDS011;3532;51.118;7.210;2022-08-05T10:25:23;9.83;;;7.30;;
6983;SDS011;3532;51.118;7.210;2022-08-05T10:27:49;7.67;;;6.97;;
6983;SDS011;3532;51.118;7.210;2022-08-05T10:30:14;7.37;;;6.77;;
6983;SDS011;3532;51.118;7.210;2022-08-05T10:32:40;8.30;;;7.60;;
6983;SDS011;3532;51.118;7.210;2022-08-05T10:35:05;7.40;;;6.70;;
6983;SDS011;3532;51.118;7.210;2022-08-05T10:37:31;7.70;;;5.83;;
6983;SDS011;3532;51.118;7.210;2022-08-05T10:39:57;7.93;;;7.13;;
6983;SDS011;3532;51.118;7.210;2022-08-05T10:42:25;8.33;;;6.87;;
6983;SDS011;3532;51.118;7.210;2022-08-05T10:44:53;8.90;;;6.50;;
6983;SDS011;3532;51.118;7.210;2022-08-05T10:47:18;7.10;;;6.50;;
6983;SDS011;3532;51.118;7.210;2022-08-05T10:52:44;7.07;;;6.37;;
6983;SDS011;3532;51.118;7.210;2022-08-05T10:55:16;8.57;;;6.87;;
6983;SDS011;3532;51.118;7.210;2022-08-05T10:57:42;7.37;;;6.10;;
6983;SDS011;3532;51.118;7.210;2022-08-05T11:02:35;9.57;;;6.77;;
6983;SDS011;3532;51.118;7.210;2022-08-05T11:05:05;9.67;;;6.23;;
6983;SDS011;3532;51.118;7.210;2022-08-05T11:07:33;6.97;;;6.27;;
6983;SDS011;3532;51.118;7.210;2022-08-05T11:09:59;8.80;;;6.80;;
6983;SDS011;3532;51.118;7.210;2022-08-05T11:12:59;8.93;;;6.23;;
6983;SDS011;3532;51.118;7.210;2022-08-05T11:15:18;8.60;;;5.87;;
6983;SDS011;3532;51.118;7.210;2022-08-05T11:17:48;8.00;;;5.83;;
6983;SDS011;3532;51.118;7.210;2022-08-05T11:22:58;5.60;;;5.03;;
6983;SDS011;3532;51.118;7.210;2022-08-05T11:25:33;5.67;;;4.27;;
6983;SDS011;3532;51.118;7.210;2022-08-05T11:30:37;5.37;;;4.03;;
6983;SDS011;3532;51.118;7.210;2022-08-05T11:33:28;6.33;;;4.80;;
6983;SDS011;3532;51.118;7.210;2022-08-05T11:36:01;7.13;;;4.70;;
6983;SDS011;3532;51.118;7.210;2022-08-05T11:41:05;7.60;;;5.43;;
6983;SDS011;3532;51.118;7.210;2022-08-05T11:43:32;5.53;;;4.83;;
6983;SDS011;3532;51.118;7.210;2022-08-05T11:45:58;7.93;;;4.93;;
6983;SDS011;3532;51.118;7.210;2022-08-05T11:48:24;6.80;;;4.97;;
6983;SDS011;3532;51.118;7.210;2022-08-05T11:50:50;8.30;;;4.90;;
6983;SDS011;3532;51.118;7.210;2022-08-05T11:53:16;7.20;;;5.17;;
6983;SDS011;3532;51.118;7.210;2022-08-05T11:55:51;6.67;;;5.93;;
6983;SDS011;3532;51.118;7.210;2022-08-05T11:58:27;5.97;;;4.83;;
6983;SDS011;3532;51.118;7.210;2022-08-05T12:03:27;5.03;;;4.20;;
6983;SDS011;3532;51.118;7.210;2022-08-05T12:05:53;6.47;;;4.77;;
6983;SDS011;3532;51.118;7.210;2022-08-05T12:08:18;6.27;;;4.40;;
6983;SDS011;3532;51.118;7.210;2022-08-05T12:10:43;7.10;;;5.00;;
6983;SDS011;3532;51.118;7.210;2022-08-05T12:13:09;7.33;;;4.90;;
6983;SDS011;3532;51.118;7.210;2022-08-05T12:15:34;4.50;;;4.03;;
6983;SDS011;3532;51.118;7.210;2022-08-05T12:18:00;7.40;;;4.77;;
6983;SDS011;3532;51.118;7.210;2022-08-05T12:20:28;5.70;;;4.83;;
6983;SDS011;3532;51.118;7.210;2022-08-05T12:23:06;7.70;;;4.20;;
6983;SDS011;3532;51.118;7.210;2022-08-05T12:25:47;4.60;;;3.57;;
6983;SDS011;3532;51.118;7.210;2022-08-05T12:28:31;5.87;;;4.13;;
6983;SDS011;3532;51.118;7.210;2022-08-05T12:30:58;7.17;;;4.20;;
6983;SDS011;3532;51.118;7.210;2022-08-05T12:33:23;3.67;;;3.37;;
6983;SDS011;3532;51.118;7.210;2022-08-05T12:35:49;4.00;;;3.60;;
6983;SDS011;3532;51.118;7.210;2022-08-05T12:38:14;3.90;;;3.60;;
6983;SDS011;3532;51.118;7.210;2022-08-05T12:40:40;4.57;;;4.03;;
6983;SDS011;3532;51.118;7.210;2022-08-05T12:43:05;4.40;;;4.00;;
6983;SDS011;3532;51.118;7.210;2022-08-05T12:45:31;5.00;;;3.80;;
6983;SDS011;3532;51.118;7.210;2022-08-05T12:47:56;6.00;;;3.70;;
6983;SDS011;3532;51.118;7.210;2022-08-05T12:50:21;4.13;;;3.57;;
6983;SDS011;3532;51.118;7.210;2022-08-05T12:52:57;4.17;;;3.83;;
6983;SDS011;3532;51.118;7.210;2022-08-05T12:55:24;5.33;;;3.93;;
6983;SDS011;3532;51.118;7.210;2022-08-05T12:57:51;5.17;;;3.90;;
6983;SDS011;3532;51.118;7.210;2022-08-05T13:00:19;5.00;;;3.80;;
6983;SDS011;3532;51.118;7.210;2022-08-05T13:02:45;5.40;;;3.83;;
6983;SDS011;3532;51.118;7.210;2022-08-05T13:05:10;4.63;;;3.87;;
6983;SDS011;3532;51.118;7.210;2022-08-05T13:07:35;6.50;;;4.20;;
6983;SDS011;3532;51.118;7.210;2022-08-05T13:10:03;4.47;;;4.07;;
6983;SDS011;3532;51.118;7.210;2022-08-05T13:12:38;4.10;;;3.80;;
6983;SDS011;3532;51.118;7.210;2022-08-05T13:15:04;4.83;;;4.13;;
6983;SDS011;3532;51.118;7.210;2022-08-05T13:17:31;4.43;;;3.90;;
6983;SDS011;3532;51.118;7.210;2022-08-05T13:20:13;4.83;;;3.67;;
6983;SDS011;3532;51.118;7.210;2022-08-05T13:22:40;8.57;;;4.47;;
6983;SDS011;3532;51.118;7.210;2022-08-05T13:25:10;5.63;;;4.40;;
6983;SDS011;3532;51.118;7.210;2022-08-05T13:27:42;5.17;;;4.67;;
6983;SDS011;3532;51.118;7.210;2022-08-05T13:30:12;5.10;;;4.60;;
6983;SDS011;3532;51.118;7.210;2022-08-05T13:32:40;5.03;;;4.53;;
6983;SDS011;3532;51.118;7.210;2022-08-05T13:35:05;5.87;;;4.87;;
6983;SDS011;3532;51.118;7.210;2022-08-05T13:37:31;6.50;;;5.10;;
6983;SDS011;3532;51.118;7.210;2022-08-05T13:39:56;7.27;;;5.03;;
6983;SDS011;3532;51.118;7.210;2022-08-05T13:42:22;4.83;;;4.33;;
6983;SDS011;3532;51.118;7.210;2022-08-05T13:44:54;5.57;;;4.00;;
6983;SDS011;3532;51.118;7.210;2022-08-05T13:47:20;5.30;;;4.20;;
6983;SDS011;3532;51.118;7.210;2022-08-05T13:49:46;4.70;;;4.30;;
6983;SDS011;3532;51.118;7.210;2022-08-05T13:52:15;4.87;;;4.10;;
6983;SDS011;3532;51.118;7.210;2022-08-05T13:54:42;5.83;;;3.97;;
6983;SDS011;3532;51.118;7.210;2022-08-05T13:57:08;3.77;;;3.43;;
6983;SDS011;3532;51.118;7.210;2022-08-05T13:59:34;6.63;;;4.43;;
6983;SDS011;3532;51.118;7.210;2022-08-05T14:02:00;3.90;;;3.60;;
6983;SDS011;3532;51.118;7.210;2022-08-05T14:04:26;6.40;;;3.47;;
6983;SDS011;3532;51.118;7.210;2022-08-05T14:07:14;5.07;;;4.03;;
6983;SDS011;3532;51.118;7.210;2022-08-05T14:09:39;5.50;;;4.03;;
6983;SDS011;3532;51.118;7.210;2022-08-05T14:12:05;3.97;;;3.63;;
6983;SDS011;3532;51.118;7.210;2022-08-05T14:14:30;6.47;;;3.80;;
6983;SDS011;3532;51.118;7.210;2022-08-05T14:16:55;4.97;;;4.30;;
6983;SDS011;3532;51.118;7.210;2022-08-05T14:19:21;4.50;;;4.17;;
6983;SDS011;3532;51.118;7.210;2022-08-05T14:21:46;5.73;;;4.13;;
6983;SDS011;3532;51.118;7.210;2022-08-05T14:24:11;7.10;;;4.03;;
6983;SDS011;3532;51.118;7.210;2022-08-05T14:26:37;4.10;;;3.40;;
6983;SDS011;3532;51.118;7.210;2022-08-05T14:29:03;4.90;;;4.37;;
6983;SDS011;3532;51.118;7.210;2022-08-05T14:31:29;7.77;;;5.17;;
6983;SDS011;3532;51.118;7.210;2022-08-05T14:33:54;6.47;;;5.07;;
6983;SDS011;3532;51.118;7.210;2022-08-05T14:36:20;6.07;;;4.57;;
6983;SDS011;3532;51.118;7.210;2022-08-05T14:38:45;4.83;;;4.17;;
6983;SDS011;3532;51.118;7.210;2022-08-05T14:41:10;4.77;;;4.00;;
6983;SDS011;3532;51.118;7.210;2022-08-05T14:43:36;6.47;;;4.20;;
6983;SDS011;3532;51.118;7.210;2022-08-05T14:46:02;5.33;;;4.00;;
6983;SDS011;3532;51.118;7.210;2022-08-05T14:48:27;4.90;;;4.37;;
6983;SDS011;3532;51.118;7.210;2022-08-05T14:50:52;4.47;;;3.97;;
6983;SDS011;3532;51.118;7.210;2022-08-05T14:53:18;5.27;;;4.50;;
6983;SDS011;3532;51.118;7.210;2022-08-05T14:55:43;5.43;;;4.00;;
6983;SDS011;3532;51.118;7.210;2022-08-05T14:58:08;4.37;;;3.90;;
6983;SDS011;3532;51.118;7.210;2022-08-05T15:00:34;4.13;;;3.83;;
6983;SDS011;3532;51.118;7.210;2022-08-05T15:02:59;5.97;;;4.73;;
6983;SDS011;3532;51.118;7.210;2022-08-05T15:05:25;5.53;;;4.60;;
6983;SDS011;3532;51.118;7.210;2022-08-05T15:07:51;6.60;;;4.77;;
6983;SDS011;3532;51.118;7.210;2022-08-05T15:10:16;4.30;;;4.00;;
6983;SDS011;3532;51.118;7.210;2022-08-05T15:12:41;6.53;;;4.70;;
6983;SDS011;3532;51.118;7.210;2022-08-05T15:15:07;6.57;;;3.97;;
6983;SDS011;3532;51.118;7.210;2022-08-05T15:17:33;5.77;;;4.43;;
6983;SDS011;3532;51.118;7.210;2022-08-05T15:19:58;4.83;;;4.17;;
6983;SDS011;3532;51.118;7.210;2022-08-05T15:22:23;5.60;;;4.30;;
6983;SDS011;3532;51.118;7.210;2022-08-05T15:24:49;4.80;;;4.30;;
6983;SDS011;3532;51.118;7.210;2022-08-05T15:27:14;4.57;;;4.23;;
6983;SDS011;3532;51.118;7.210;2022-08-05T15:29:39;4.10;;;3.70;;
6983;SDS011;3532;51.118;7.210;2022-08-05T15:32:05;4.83;;;3.60;;
6983;SDS011;3532;51.118;7.210;2022-08-05T15:34:30;3.80;;;3.40;;
6983;SDS011;3532;51.118;7.210;2022-08-05T15:36:55;3.40;;;3.00;;
6983;SDS011;3532;51.118;7.210;2022-08-05T15:39:21;5.67;;;4.03;;
6983;SDS011;3532;51.118;7.210;2022-08-05T15:41:46;7.20;;;3.57;;